Time;durP1;ratioP1;P1;durP2;ratioP2;P2;SDS_P1;SDS_P2;PMS_P1;PMS_P2;Temp;Humidity;BMP_temperature;BMP_pressure;BME280_temperature;BME280_humidity;BME280_pressure;Samples;Min_cycle;Max_cycle;Signal;HPM_P1;HPM_P2
2021/05/04 00:01:58;;;;;;;9.85;7.88;;;6.70;99.90;;;;;;5034516;28;20575;-72
2021/05/04 00:04:23;;;;;;;8.50;7.50;;;6.60;99.90;;;;;;5016614;28;20021;-72
2021/05/04 00:06:51;;;;;;;10.63;8.25;;;6.60;99.90;;;;;;5034491;28;20033;-71
2021/05/04 00:09:16;;;;;;;10.57;8.27;;;6.70;99.90;;;;;;5034323;28;20112;-71
2021/05/04 00:11:42;;;;;;;10.65;7.78;;;6.70;99.90;;;;;;5034199;28;20640;-72
2021/05/04 00:14:08;;;;;;;10.43;7.82;;;6.60;99.90;;;;;;5016239;28;20018;-71
2021/05/04 00:16:34;;;;;;;10.05;8.23;;;6.70;99.90;;;;;;5034316;28;20104;-71
2021/05/04 00:19:00;;;;;;;10.02;8.20;;;6.70;99.90;;;;;;5027137;28;20018;-71
2021/05/04 00:21:25;;;;;;;8.73;7.55;;;6.70;99.90;;;;;;5014504;28;20522;-71
2021/05/04 00:23:51;;;;;;;10.23;7.88;;;6.70;99.90;;;;;;5014067;28;20083;-71
2021/05/04 00:26:16;;;;;;;9.13;7.80;;;6.70;99.90;;;;;;5018325;28;20141;-74
2021/05/04 00:28:43;;;;;;;10.82;8.52;;;6.70;99.90;;;;;;5013167;28;20030;-74
2021/05/04 00:31:09;;;;;;;11.07;8.38;;;6.70;99.90;;;;;;5014195;28;20036;-71
2021/05/04 00:33:34;;;;;;;10.40;8.75;;;6.70;99.90;;;;;;5009020;28;20030;-72
2021/05/04 00:36:00;;;;;;;11.90;8.00;;;6.70;99.90;;;;;;5014118;28;20076;-72
2021/05/04 00:38:25;;;;;;;9.52;8.20;;;6.70;99.90;;;;;;5014106;28;20101;-72
2021/05/04 00:40:51;;;;;;;11.60;8.50;;;6.80;99.90;;;;;;4996310;28;20114;-71
2021/05/04 00:43:17;;;;;;;8.88;7.97;;;6.80;99.90;;;;;;4996428;28;20026;-72
2021/05/04 00:45:43;;;;;;;10.68;8.07;;;6.90;99.90;;;;;;5013891;28;20030;-72
2021/05/04 00:48:09;;;;;;;10.48;8.25;;;6.80;99.90;;;;;;5013882;28;20036;-74
2021/05/04 00:50:35;;;;;;;11.38;8.35;;;6.80;99.90;;;;;;4999026;28;20037;-75
2021/05/04 00:53:00;;;;;;;9.85;8.85;;;6.80;99.90;;;;;;5023834;28;20036;-74
2021/05/04 00:55:26;;;;;;;10.95;8.27;;;6.80;99.90;;;;;;5033239;28;20029;-73
2021/05/04 00:57:55;;;;;;;9.70;8.35;;;6.80;99.90;;;;;;5015827;28;20030;-72
2021/05/04 01:00:21;;;;;;;9.90;8.73;;;6.70;99.90;;;;;;5033634;28;20356;-73
2021/05/04 01:02:48;;;;;;;10.57;9.07;;;6.70;99.90;;;;;;5015719;28;20025;-74
2021/05/04 01:05:14;;;;;;;10.77;9.10;;;6.70;99.90;;;;;;5033298;28;20033;-76
2021/05/04 01:07:40;;;;;;;10.57;8.15;;;6.70;99.90;;;;;;5015526;28;20033;-73
2021/05/04 01:10:06;;;;;;;10.45;8.20;;;6.70;99.90;;;;;;5033197;28;20364;-72
2021/05/04 01:12:32;;;;;;;9.32;8.32;;;6.80;99.90;;;;;;5033034;28;20226;-74
2021/05/04 01:14:58;;;;;;;9.90;8.32;;;6.80;99.90;;;;;;5015264;28;20493;-74
2021/05/04 01:17:24;;;;;;;9.65;8.50;;;6.80;99.90;;;;;;5033095;28;20446;-73
2021/05/04 01:19:49;;;;;;;9.65;7.95;;;6.80;99.90;;;;;;5019310;28;20065;-73
2021/05/04 01:22:15;;;;;;;10.73;8.05;;;6.80;99.90;;;;;;4995472;28;20026;-71
2021/05/04 01:24:41;;;;;;;11.30;8.43;;;6.80;99.90;;;;;;4995395;28;20057;-71
2021/05/04 01:27:07;;;;;;;11.05;8.18;;;6.80;99.90;;;;;;5013115;28;20026;-71
2021/05/04 01:29:32;;;;;;;10.25;8.07;;;6.80;99.90;;;;;;5013165;28;20038;-71
2021/05/04 01:31:58;;;;;;;12.73;8.90;;;6.80;99.90;;;;;;5012940;28;20036;-73
2021/05/04 01:34:24;;;;;;;10.95;8.63;;;6.80;99.90;;;;;;4995216;28;20111;-74
2021/05/04 01:36:49;;;;;;;14.20;9.25;;;6.80;99.90;;;;;;5012988;28;20037;-74
2021/05/04 01:39:15;;;;;;;12.60;9.63;;;6.80;99.90;;;;;;5012554;28;20030;-72
2021/05/04 01:41:41;;;;;;;9.52;8.25;;;6.80;99.90;;;;;;5012945;28;20117;-74
2021/05/04 01:44:08;;;;;;;9.52;8.10;;;6.80;99.90;;;;;;5021701;28;20030;-72
2021/05/04 01:46:34;;;;;;;9.60;7.85;;;6.70;99.90;;;;;;5019391;28;20076;-72
2021/05/04 01:49:04;;;;;;;9.13;8.05;;;6.60;99.90;;;;;;5023888;28;20026;-71
2021/05/04 01:51:30;;;;;;;9.68;8.07;;;6.70;99.90;;;;;;5008443;28;20053;-72
2021/05/04 01:53:57;;;;;;;10.05;7.95;;;6.70;99.90;;;;;;5022078;28;20025;-72
2021/05/04 01:56:23;;;;;;;10.15;7.55;;;6.60;99.90;;;;;;5016315;28;20472;-72
2021/05/04 01:58:49;;;;;;;10.65;8.32;;;6.60;99.90;;;;;;5012752;28;20097;-72
2021/05/04 02:01:15;;;;;;;9.75;8.45;;;6.60;99.90;;;;;;5025750;28;20022;-72
2021/05/04 02:03:40;;;;;;;11.25;8.50;;;6.60;99.90;;;;;;5021709;28;20040;-73
2021/05/04 02:06:06;;;;;;;9.10;8.20;;;6.60;99.90;;;;;;5019091;28;20030;-71
2021/05/04 02:08:32;;;;;;;9.52;8.52;;;6.50;99.90;;;;;;5005243;28;20549;-73
2021/05/04 02:10:57;;;;;;;9.85;8.57;;;6.50;99.90;;;;;;5025465;28;20122;-71
2021/05/04 02:13:23;;;;;;;10.07;8.25;;;6.40;99.90;;;;;;5021843;28;20025;-71
2021/05/04 02:15:50;;;;;;;9.40;8.07;;;6.40;99.90;;;;;;5016150;28;20021;-71
2021/05/04 02:18:16;;;;;;;9.65;8.02;;;6.40;99.90;;;;;;5020749;28;20379;-72
2021/05/04 02:20:42;;;;;;;9.35;7.78;;;6.40;99.90;;;;;;5012098;28;20080;-72
2021/05/04 02:23:07;;;;;;;9.20;8.30;;;6.40;99.90;;;;;;5022198;28;20026;-72
2021/05/04 02:25:33;;;;;;;8.68;7.78;;;6.30;99.90;;;;;;5028221;28;20455;-72
2021/05/04 02:27:58;;;;;;;9.50;8.00;;;6.30;99.90;;;;;;4994615;28;20044;-72
2021/05/04 02:30:24;;;;;;;9.38;8.48;;;6.30;99.90;;;;;;5015329;28;20108;-73
2021/05/04 02:32:50;;;;;;;9.30;8.20;;;6.30;99.90;;;;;;5022027;28;20034;-73
2021/05/04 02:35:15;;;;;;;9.70;8.75;;;6.20;99.90;;;;;;5025357;28;20034;-72
2021/05/04 02:37:41;;;;;;;10.07;8.95;;;6.20;99.90;;;;;;5022201;28;20028;-72
2021/05/04 02:40:07;;;;;;;9.45;8.45;;;6.20;99.90;;;;;;5015400;28;20030;-72
2021/05/04 02:42:32;;;;;;;9.30;8.40;;;6.20;99.90;;;;;;5012011;28;20052;-73
2021/05/04 02:44:58;;;;;;;10.43;8.13;;;6.10;99.90;;;;;;5015071;28;20108;-71
2021/05/04 02:47:24;;;;;;;8.73;7.53;;;6.10;99.90;;;;;;5021945;28;20029;-71
2021/05/04 02:49:49;;;;;;;9.55;8.48;;;6.10;99.90;;;;;;5011597;28;20041;-72
2021/05/04 02:52:15;;;;;;;10.05;8.50;;;6.10;99.90;;;;;;5011357;28;20028;-72
2021/05/04 02:54:40;;;;;;;9.88;8.88;;;6.10;99.90;;;;;;5011669;28;20025;-71
2021/05/04 02:57:06;;;;;;;9.77;8.15;;;6.10;99.90;;;;;;5021571;28;20029;-71
2021/05/04 02:59:31;;;;;;;8.63;7.80;;;6.00;99.90;;;;;;5031569;28;20036;-74
2021/05/04 03:01:57;;;;;;;9.23;8.38;;;6.00;99.90;;;;;;5031495;28;20018;-72
2021/05/04 03:04:22;;;;;;;10.23;8.73;;;6.00;99.90;;;;;;5013426;28;20045;-74
2021/05/04 03:06:48;;;;;;;8.85;7.95;;;6.00;99.90;;;;;;5031724;28;20055;-74
2021/05/04 03:09:13;;;;;;;9.38;7.82;;;6.00;99.90;;;;;;5013758;28;20033;-73
2021/05/04 03:11:39;;;;;;;8.52;7.70;;;5.90;99.90;;;;;;5013717;28;20526;-74
2021/05/04 03:14:04;;;;;;;11.50;8.25;;;6.00;99.90;;;;;;5031143;28;20069;-74
2021/05/04 03:16:30;;;;;;;12.10;8.70;;;6.00;99.90;;;;;;5031468;28;20353;-74
2021/05/04 03:18:55;;;;;;;9.52;8.43;;;6.00;99.90;;;;;;4997777;28;20358;-73
2021/05/04 03:21:21;;;;;;;9.27;8.38;;;6.00;99.90;;;;;;4999362;28;20384;-74
2021/05/04 03:23:47;;;;;;;9.10;8.20;;;5.90;99.90;;;;;;4998536;28;20037;-74
2021/05/04 03:26:14;;;;;;;11.20;8.70;;;6.00;99.90;;;;;;5004935;28;20037;-73
2021/05/04 03:28:40;;;;;;;9.80;7.90;;;5.90;99.90;;;;;;5009309;28;20038;-72
2021/05/04 03:31:06;;;;;;;9.10;8.20;;;6.00;99.90;;;;;;5005049;28;20037;-73
2021/05/04 03:33:31;;;;;;;9.95;7.82;;;6.00;99.90;;;;;;5024478;28;20030;-71
2021/05/04 03:35:57;;;;;;;9.40;8.15;;;5.90;99.90;;;;;;5020501;28;20033;-71
2021/05/04 03:38:22;;;;;;;9.32;8.43;;;6.00;99.90;;;;;;5017996;28;20026;-71
2021/05/04 03:40:48;;;;;;;8.57;7.75;;;6.00;99.90;;;;;;5031212;28;20037;-73
2021/05/04 03:43:13;;;;;;;9.55;8.00;;;6.00;99.90;;;;;;5029013;28;20036;-73
2021/05/04 03:45:39;;;;;;;9.93;8.35;;;6.00;99.90;;;;;;5011387;28;20030;-72
2021/05/04 03:48:05;;;;;;;9.48;8.48;;;6.00;99.90;;;;;;4998190;28;20506;-72
2021/05/04 03:50:32;;;;;;;10.55;8.80;;;6.00;99.90;;;;;;5019747;28;20026;-73
2021/05/04 03:52:59;;;;;;;9.60;8.60;;;6.00;99.90;;;;;;5017801;28;20362;-73
2021/05/04 03:55:25;;;;;;;10.68;8.75;;;6.00;99.90;;;;;;5004526;28;20029;-73
2021/05/04 03:57:51;;;;;;;9.98;8.77;;;6.10;99.90;;;;;;5011429;28;20026;-72
2021/05/04 04:00:19;;;;;;;10.13;8.63;;;6.10;99.90;;;;;;4996303;28;20042;-72
2021/05/04 04:02:44;;;;;;;10.32;8.40;;;6.10;99.90;;;;;;5024464;28;20026;-73
2021/05/04 04:05:11;;;;;;;11.02;8.43;;;6.10;99.90;;;;;;5034447;28;20041;-73
2021/05/04 04:07:36;;;;;;;9.40;8.40;;;6.10;99.90;;;;;;5034362;28;20029;-72
2021/05/04 04:10:02;;;;;;;9.38;8.35;;;6.10;99.90;;;;;;5007747;28;20033;-73
2021/05/04 04:12:28;;;;;;;12.50;8.98;;;6.20;99.90;;;;;;5014533;28;20515;-73
2021/05/04 04:14:54;;;;;;;11.30;9.35;;;6.20;99.90;;;;;;5002378;28;20049;-73
2021/05/04 04:17:20;;;;;;;10.85;8.55;;;6.20;99.90;;;;;;5014424;28;20108;-73
2021/05/04 04:19:46;;;;;;;10.32;8.30;;;6.20;99.90;;;;;;5018605;28;20026;-74
2021/05/04 04:22:11;;;;;;;10.32;8.75;;;6.30;99.90;;;;;;5014597;28;20022;-73
2021/05/04 04:24:37;;;;;;;13.27;10.30;;;6.30;99.90;;;;;;5014142;28;20053;-74
2021/05/04 04:27:03;;;;;;;10.50;8.88;;;6.30;99.90;;;;;;5016319;28;20111;-74
2021/05/04 04:29:29;;;;;;;10.30;8.18;;;6.30;99.90;;;;;;5025902;28;20026;-74
2021/05/04 04:31:55;;;;;;;9.70;8.48;;;6.40;99.90;;;;;;5027258;28;20017;-74
2021/05/04 04:34:21;;;;;;;10.43;9.38;;;6.50;99.90;;;;;;5013925;28;20033;-74
2021/05/04 04:36:46;;;;;;;10.57;8.02;;;6.50;99.90;;;;;;4996574;28;20113;-74
2021/05/04 04:39:12;;;;;;;8.35;7.53;;;6.60;99.90;;;;;;4996408;28;20022;-73
2021/05/04 04:41:40;;;;;;;9.98;8.38;;;6.60;99.90;;;;;;5013565;28;20518;-73
2021/05/04 04:44:06;;;;;;;9.38;8.23;;;6.70;99.90;;;;;;5003952;28;20041;-74
2021/05/04 04:46:41;;;;;;;9.85;8.23;;;6.80;99.90;;;;;;5015544;28;20461;-75
2021/05/04 04:49:11;;;;;;;10.20;7.95;;;6.90;99.90;;;;;;5013557;28;20380;-73
2021/05/04 04:51:37;;;;;;;13.70;8.88;;;7.00;99.90;;;;;;5014579;28;20061;-73
2021/05/04 04:54:04;;;;;;;11.93;7.68;;;7.10;99.90;;;;;;5030507;28;20034;-73
2021/05/04 04:56:30;;;;;;;10.68;8.35;;;7.10;99.90;;;;;;5014176;28;20084;-73
2021/05/04 04:58:55;;;;;;;9.02;8.05;;;7.20;99.90;;;;;;4996050;28;20022;-72
2021/05/04 05:01:21;;;;;;;9.40;7.75;;;7.20;99.90;;;;;;5026951;28;20034;-72
2021/05/04 05:03:46;;;;;;;9.85;7.85;;;7.30;99.90;;;;;;5023413;28;20030;-73
2021/05/04 05:06:12;;;;;;;9.15;8.05;;;7.30;99.90;;;;;;5033377;28;20022;-71
2021/05/04 05:08:37;;;;;;;9.23;7.78;;;7.30;99.90;;;;;;5023600;28;20029;-71
2021/05/04 05:11:03;;;;;;;8.60;7.38;;;7.40;99.90;;;;;;5008794;28;20034;-71
2021/05/04 05:13:28;;;;;;;8.15;7.18;;;7.50;99.90;;;;;;5022379;28;20033;-70
2021/05/04 05:15:54;;;;;;;9.63;8.30;;;7.50;99.90;;;;;;5020188;28;20021;-71
2021/05/04 05:18:19;;;;;;;9.48;7.57;;;7.60;99.90;;;;;;5023452;28;20602;-73
2021/05/04 05:20:45;;;;;;;7.95;7.10;;;7.60;99.90;;;;;;4982955;28;20033;-72
2021/05/04 05:23:12;;;;;;;9.52;7.82;;;7.70;99.90;;;;;;5024200;28;20036;-71
2021/05/04 05:25:39;;;;;;;8.13;7.07;;;7.70;99.90;;;;;;5019580;28;20438;-73
2021/05/04 05:28:05;;;;;;;11.93;8.32;;;7.80;99.90;;;;;;5013534;28;20492;-72
2021/05/04 05:30:31;;;;;;;8.60;7.70;;;7.80;99.90;;;;;;5012727;28;20580;-71
2021/05/04 05:32:56;;;;;;;9.98;7.90;;;7.90;99.90;;;;;;5032888;28;20057;-72
2021/05/04 05:35:22;;;;;;;8.73;7.53;;;7.90;99.90;;;;;;5019568;28;20034;-71
2021/05/04 05:37:47;;;;;;;9.82;7.35;;;8.00;99.90;;;;;;5022267;28;20018;-71
2021/05/04 05:40:13;;;;;;;8.02;7.18;;;8.10;99.90;;;;;;5027804;28;20054;-71
2021/05/04 05:42:39;;;;;;;9.63;7.32;;;8.20;99.90;;;;;;5013057;28;20065;-73
2021/05/04 05:45:05;;;;;;;8.27;7.03;;;8.30;99.90;;;;;;5012812;28;20026;-73
2021/05/04 05:47:31;;;;;;;8.48;6.63;;;8.30;99.90;;;;;;5005820;28;20056;-73
2021/05/04 05:49:56;;;;;;;9.05;7.10;;;8.40;99.90;;;;;;5019391;28;20387;-71
2021/05/04 05:52:22;;;;;;;9.75;7.18;;;8.50;99.90;;;;;;5023843;28;20037;-72
2021/05/04 05:54:48;;;;;;;7.13;6.43;;;8.60;99.90;;;;;;5017880;28;20021;-71
2021/05/04 05:57:13;;;;;;;8.95;6.80;;;8.70;99.90;;;;;;5005943;28;20049;-71
2021/05/04 05:59:39;;;;;;;7.75;6.20;;;8.80;99.90;;;;;;5012499;28;20029;-72
2021/05/04 06:02:04;;;;;;;8.02;5.28;;;8.90;99.90;;;;;;5033574;28;20021;-71
2021/05/04 06:04:29;;;;;;;7.00;5.68;;;9.00;99.90;;;;;;5032110;28;20518;-72
2021/05/04 06:06:56;;;;;;;7.28;6.57;;;9.00;99.90;;;;;;5014730;28;20025;-72
2021/05/04 06:09:21;;;;;;;8.40;6.20;;;9.10;99.90;;;;;;5015935;28;20022;-72
2021/05/04 06:11:47;;;;;;;8.30;5.88;;;9.10;99.90;;;;;;5004962;28;20407;-71
2021/05/04 06:14:12;;;;;;;8.60;6.95;;;9.10;99.90;;;;;;5012337;28;20365;-72
2021/05/04 06:16:38;;;;;;;8.43;5.70;;;9.20;99.90;;;;;;5012571;28;20046;-72
2021/05/04 06:19:04;;;;;;;7.38;5.60;;;9.20;99.90;;;;;;5021068;28;20022;-71
2021/05/04 06:21:29;;;;;;;8.38;6.57;;;9.20;99.90;;;;;;5012437;28;20683;-71
2021/05/04 06:23:55;;;;;;;7.80;7.00;;;9.20;99.90;;;;;;4994914;28;20057;-71
2021/05/04 06:26:21;;;;;;;9.05;7.75;;;9.30;99.90;;;;;;5016340;28;20026;-72
2021/05/04 06:28:48;;;;;;;7.22;6.50;;;9.40;99.90;;;;;;5013293;28;20488;-71
2021/05/04 06:31:19;;;;;;;8.40;6.72;;;9.40;99.90;;;;;;5012460;28;20126;-71
2021/05/04 06:33:45;;;;;;;6.70;5.90;;;9.40;99.90;;;;;;5012149;28;20018;-73
2021/05/04 06:36:11;;;;;;;7.32;5.43;;;9.50;99.90;;;;;;4995055;28;20442;-73
2021/05/04 06:38:37;;;;;;;7.65;6.13;;;9.60;99.90;;;;;;5012353;28;20096;-73
2021/05/04 06:41:03;;;;;;;7.85;5.75;;;9.60;99.90;;;;;;5012379;28;20109;-70
2021/05/04 06:43:28;;;;;;;7.32;5.40;;;9.60;99.90;;;;;;4995445;28;20022;-72
2021/05/04 06:45:54;;;;;;;9.60;5.85;;;9.70;99.90;;;;;;5012959;28;20030;-72
2021/05/04 06:48:20;;;;;;;6.72;5.45;;;9.70;99.90;;;;;;5012780;28;20030;-72
2021/05/04 06:50:45;;;;;;;6.70;5.60;;;9.80;99.90;;;;;;5012606;28;20512;-73
2021/05/04 06:53:11;;;;;;;7.70;5.10;;;9.90;99.90;;;;;;4994736;28;20073;-73
2021/05/04 06:55:37;;;;;;;5.65;5.05;;;10.00;99.90;;;;;;5004454;28;20025;-73
2021/05/04 06:58:02;;;;;;;5.75;5.15;;;10.10;99.90;;;;;;5032543;28;20599;-73
2021/05/04 07:00:28;;;;;;;6.70;5.00;;;10.20;99.90;;;;;;5032378;28;20049;-73
2021/05/04 07:02:53;;;;;;;10.52;5.45;;;10.30;99.90;;;;;;5032082;28;20040;-71
2021/05/04 07:05:19;;;;;;;5.93;4.97;;;10.40;99.90;;;;;;5031840;28;20035;-72
2021/05/04 07:07:45;;;;;;;5.93;5.30;;;10.60;99.90;;;;;;5014686;28;20044;-72
2021/05/04 07:10:11;;;;;;;6.28;5.20;;;10.60;99.90;;;;;;5022838;28;20120;-71
2021/05/04 07:12:38;;;;;;;9.88;5.38;;;10.70;99.90;;;;;;5025300;28;20092;-71
2021/05/04 07:15:04;;;;;;;5.13;4.57;;;10.80;99.90;;;;;;5012151;28;20022;-71
2021/05/04 07:17:30;;;;;;;4.18;3.78;;;10.90;99.90;;;;;;4998317;28;20029;-72
2021/05/04 07:19:58;;;;;;;5.25;4.18;;;11.10;99.90;;;;;;5016677;28;20025;-72
2021/05/04 07:22:26;;;;;;;5.60;4.38;;;11.10;99.90;;;;;;5007655;28;20022;-73
2021/05/04 07:24:52;;;;;;;4.20;3.80;;;11.20;99.90;;;;;;5004792;28;20021;-72
2021/05/04 07:27:19;;;;;;;5.13;3.67;;;11.20;99.90;;;;;;5013776;28;20026;-72
2021/05/04 07:29:44;;;;;;;4.13;3.80;;;11.30;99.90;;;;;;4991983;28;20026;-72
2021/05/04 07:32:10;;;;;;;4.50;3.85;;;11.40;99.90;;;;;;5026994;28;20044;-72
2021/05/04 07:34:35;;;;;;;4.70;3.97;;;11.40;99.90;;;;;;5021103;28;20422;-71
2021/05/04 07:37:01;;;;;;;5.13;4.47;;;11.40;99.90;;;;;;5026738;28;20022;-71
2021/05/04 07:39:27;;;;;;;3.63;3.33;;;11.40;99.90;;;;;;5015785;28;20025;-72
2021/05/04 07:41:52;;;;;;;5.35;4.20;;;11.30;99.90;;;;;;5032493;28;20018;-72
2021/05/04 07:44:19;;;;;;;5.05;3.92;;;11.30;99.90;;;;;;5024899;28;20034;-72
2021/05/04 07:46:44;;;;;;;4.00;3.65;;;11.30;99.90;;;;;;5015138;28;20037;-70
2021/05/04 07:49:17;;;;;;;4.78;3.63;;;11.40;99.90;;;;;;5024559;28;20033;-71
2021/05/04 07:51:42;;;;;;;5.15;4.10;;;11.40;99.90;;;;;;5015047;28;20072;-71
2021/05/04 07:54:08;;;;;;;5.15;3.83;;;11.30;99.90;;;;;;4997350;28;20050;-72
2021/05/04 07:56:33;;;;;;;4.25;3.40;;;11.20;99.90;;;;;;5015526;28;20088;-70
2021/05/04 07:58:59;;;;;;;4.18;3.42;;;11.20;99.90;;;;;;5015390;28;20544;-72
2021/05/04 08:01:24;;;;;;;5.93;3.95;;;11.30;99.90;;;;;;5015776;28;20030;-73
2021/05/04 08:03:50;;;;;;;5.90;3.50;;;11.30;99.90;;;;;;4996465;28;20023;-73
2021/05/04 08:06:16;;;;;;;5.15;3.70;;;11.20;99.90;;;;;;5030041;28;20401;-72
2021/05/04 08:08:42;;;;;;;5.60;3.75;;;11.10;99.90;;;;;;5016992;28;20056;-72
2021/05/04 08:11:07;;;;;;;4.10;3.60;;;11.20;99.90;;;;;;5000252;28;20065;-73
2021/05/04 08:13:33;;;;;;;4.82;3.40;;;11.20;99.90;;;;;;5014948;28;20037;-72
2021/05/04 08:15:59;;;;;;;4.35;3.67;;;11.30;99.90;;;;;;5015518;28;20075;-72
2021/05/04 08:18:26;;;;;;;5.50;4.60;;;11.30;99.90;;;;;;5015692;28;20021;-72
2021/05/04 08:20:53;;;;;;;4.85;4.00;;;11.30;99.90;;;;;;5014642;28;20018;-72
2021/05/04 08:23:23;;;;;;;5.40;4.13;;;11.30;99.90;;;;;;5005804;28;20504;-71
2021/05/04 08:25:49;;;;;;;5.20;3.83;;;11.40;99.90;;;;;;5014476;28;20028;-72
2021/05/04 08:28:15;;;;;;;3.95;3.55;;;11.40;99.90;;;;;;5015470;28;20030;-73
2021/05/04 08:30:40;;;;;;;3.97;3.58;;;11.40;99.90;;;;;;4997268;28;20630;-73
2021/05/04 08:33:06;;;;;;;4.93;3.83;;;11.40;99.90;;;;;;5014627;28;20037;-73
2021/05/04 08:35:32;;;;;;;5.15;4.10;;;11.40;99.90;;;;;;4996682;28;20102;-71
2021/05/04 08:37:58;;;;;;;8.05;5.38;;;11.40;99.90;;;;;;5014716;28;20022;-72
2021/05/04 08:40:25;;;;;;;6.93;4.40;;;11.40;99.90;;;;;;5014388;28;20452;-72
2021/05/04 08:42:51;;;;;;;5.43;3.92;;;11.40;99.90;;;;;;4996939;28;20022;-72
2021/05/04 08:45:17;;;;;;;4.57;3.97;;;11.50;99.90;;;;;;5014163;28;20399;-73
2021/05/04 08:47:45;;;;;;;6.75;3.80;;;11.50;99.90;;;;;;5014309;28;20440;-73
2021/05/04 08:50:14;;;;;;;4.60;3.85;;;11.50;99.90;;;;;;5013530;28;20022;-72
2021/05/04 08:52:39;;;;;;;4.80;3.65;;;11.50;99.90;;;;;;5014604;28;20033;-72
2021/05/04 08:55:05;;;;;;;7.10;3.92;;;11.60;99.90;;;;;;5014223;28;20026;-73
2021/05/04 08:57:31;;;;;;;4.85;3.63;;;11.70;99.90;;;;;;5027155;28;20096;-73
2021/05/04 08:59:56;;;;;;;5.30;3.40;;;11.70;99.90;;;;;;5033834;28;20028;-72
2021/05/04 09:02:23;;;;;;;3.92;3.63;;;11.80;99.90;;;;;;5033899;28;20041;-73
2021/05/04 09:04:57;;;;;;;4.25;3.75;;;11.80;99.90;;;;;;5033341;28;20020;-73
2021/05/04 09:07:32;;;;;;;4.45;4.05;;;11.90;99.90;;;;;;5033046;28;20014;-72
2021/05/04 09:13:12;;;;;;;3.92;3.60;;;12.10;99.90;;;;;;5020139;28;20399;-73
2021/05/04 09:21:09;;;;;;;6.20;3.90;;;12.40;99.90;;;;;;5020987;28;20030;-72
2021/05/04 09:23:41;;;;;;;4.32;3.92;;;12.40;99.90;;;;;;5033520;28;20029;-72
2021/05/04 09:26:31;;;;;;;5.30;4.10;;;12.60;99.90;;;;;;5031269;28;20026;-72
2021/05/04 09:28:58;;;;;;;4.50;4.05;;;12.70;99.90;;;;;;5020407;28;20059;-74
2021/05/04 09:31:26;;;;;;;4.70;4.30;;;12.70;99.90;;;;;;5021696;28;20022;-71
2021/05/04 09:33:53;;;;;;;4.28;3.50;;;12.90;99.90;;;;;;5004829;28;20031;-74
2021/05/04 09:36:44;;;;;;;5.03;3.78;;;13.10;99.90;;;;;;5001510;28;20373;-73
2021/05/04 09:39:33;;;;;;;6.20;3.47;;;13.20;99.90;;;;;;4997039;28;20400;-72
2021/05/04 09:42:00;;;;;;;7.70;4.30;;;13.30;99.90;;;;;;5025533;28;20037;-71
2021/05/04 09:44:49;;;;;;;4.53;4.05;;;13.40;99.90;;;;;;5011165;28;20033;-71
2021/05/04 09:47:25;;;;;;;5.97;3.58;;;13.40;99.90;;;;;;4992441;28;20033;-72
2021/05/04 09:49:55;;;;;;;5.45;3.50;;;13.50;99.90;;;;;;5016255;28;20543;-73
2021/05/04 09:52:46;;;;;;;4.72;3.70;;;13.70;99.90;;;;;;5013366;28;20021;-72
2021/05/04 09:55:14;;;;;;;3.58;3.28;;;13.90;99.90;;;;;;5008177;28;20036;-72
2021/05/04 09:57:42;;;;;;;3.65;3.25;;;14.00;99.90;;;;;;5013881;28;20108;-72
2021/05/04 10:00:26;;;;;;;5.47;3.47;;;13.90;99.90;;;;;;5003620;28;20033;-72
2021/05/04 10:02:52;;;;;;;6.25;3.53;;;14.00;99.90;;;;;;5011389;28;20445;-72
2021/05/04 10:05:18;;;;;;;4.72;3.72;;;13.90;99.90;;;;;;5012049;28;20025;-72
2021/05/04 10:07:45;;;;;;;4.65;3.33;;;13.90;99.90;;;;;;5010526;28;20068;-72
2021/05/04 10:10:13;;;;;;;5.50;3.28;;;13.90;99.90;;;;;;5012643;28;20093;-73
2021/05/04 10:12:40;;;;;;;6.43;2.80;;;14.00;99.90;;;;;;5026361;28;20488;-73
2021/05/04 10:15:08;;;;;;;4.47;2.55;;;14.00;99.90;;;;;;5023440;28;20025;-72
2021/05/04 10:17:35;;;;;;;3.90;2.60;;;14.10;99.90;;;;;;5014838;28;20029;-72
2021/05/04 10:20:09;;;;;;;2.90;2.40;;;14.10;99.90;;;;;;5012432;28;20014;-73
2021/05/04 10:22:36;;;;;;;4.78;2.33;;;14.20;99.90;;;;;;5012964;28;20018;-73
2021/05/04 10:25:08;;;;;;;5.05;2.40;;;14.20;99.90;;;;;;5000693;28;20080;-73
2021/05/04 10:27:34;;;;;;;6.43;2.17;;;14.20;99.90;;;;;;5012635;28;20117;-72
2021/05/04 10:30:01;;;;;;;6.18;2.10;;;14.20;99.90;;;;;;5009469;28;20395;-73
2021/05/04 10:33:00;;;;;;;8.35;2.40;;;14.20;98.60;;;;;;5010743;28;20024;-73
2021/05/04 10:35:29;;;;;;;3.50;2.00;;;14.30;98.20;;;;;;5004199;28;20026;-72
2021/05/04 10:38:04;;;;;;;10.07;2.80;;;14.40;97.50;;;;;;5008563;28;20052;-72
2021/05/04 10:40:33;;;;;;;7.93;2.30;;;14.40;96.90;;;;;;4997960;28;20048;-73
2021/05/04 10:43:01;;;;;;;5.18;2.10;;;14.30;96.00;;;;;;5018579;28;20036;-73
2021/05/04 10:45:42;;;;;;;4.20;2.10;;;14.40;96.90;;;;;;5007682;28;20084;-72
2021/05/04 10:48:09;;;;;;;4.68;2.22;;;14.40;96.60;;;;;;5012363;28;20384;-73
2021/05/04 10:50:55;;;;;;;4.78;2.75;;;14.50;97.10;;;;;;4990650;28;20519;-72
2021/05/04 10:53:25;;;;;;;4.90;2.20;;;14.50;97.90;;;;;;5011513;28;20033;-72
2021/05/04 10:55:51;;;;;;;5.65;2.25;;;14.50;96.20;;;;;;5011971;28;20018;-70
2021/05/04 10:58:18;;;;;;;13.30;2.72;;;14.50;96.70;;;;;;5013143;28;20033;-76
2021/05/04 11:00:52;;;;;;;5.88;2.53;;;14.70;97.30;;;;;;4990869;28;20212;-72
2021/05/04 11:03:30;;;;;;;2.45;2.25;;;14.80;98.20;;;;;;5012439;28;20465;-72
2021/05/04 11:05:58;;;;;;;11.32;2.55;;;14.80;98.60;;;;;;5011291;28;20033;-73
2021/05/04 11:08:24;;;;;;;4.40;2.30;;;14.50;98.70;;;;;;5008977;28;20109;-73
2021/05/04 11:11:22;;;;;;;5.20;2.15;;;14.50;98.20;;;;;;5015807;28;20064;-74
2021/05/04 11:13:50;;;;;;;4.20;2.08;;;14.50;99.00;;;;;;5005420;28;20026;-73
2021/05/04 11:16:41;;;;;;;7.25;2.58;;;14.40;99.90;;;;;;5009928;28;20030;-74
2021/05/04 11:19:18;;;;;;;5.95;2.50;;;14.20;99.90;;;;;;5023782;28;20046;-73
2021/05/04 11:21:48;;;;;;;7.63;2.47;;;14.20;99.90;;;;;;5026958;28;20053;-72
2021/05/04 11:24:22;;;;;;;5.28;2.10;;;14.20;99.90;;;;;;5015912;28;20034;-72
2021/05/04 11:26:55;;;;;;;4.10;2.40;;;14.10;99.90;;;;;;5015580;28;20058;-72
2021/05/04 11:29:23;;;;;;;8.93;2.95;;;14.10;99.90;;;;;;5015597;28;20085;-72
2021/05/04 11:31:53;;;;;;;2.50;1.75;;;14.00;99.90;;;;;;5015606;28;20030;-73
2021/05/04 11:34:40;;;;;;;14.38;2.40;;;13.70;99.90;;;;;;5025021;28;20017;-73
2021/05/04 11:37:37;;;;;;;8.82;2.25;;;13.40;99.90;;;;;;5018041;28;20026;-73
2021/05/04 11:40:24;;;;;;;7.50;2.40;;;13.10;99.90;;;;;;5025370;28;20038;-73
2021/05/04 11:42:50;;;;;;;12.13;2.50;;;12.60;99.90;;;;;;5017329;28;20180;-73
2021/05/04 11:45:31;;;;;;;9.52;2.85;;;12.60;99.90;;;;;;5034662;28;20021;-73
2021/05/04 11:48:03;;;;;;;8.35;2.45;;;12.60;99.90;;;;;;5035036;28;20029;-74
2021/05/04 11:50:29;;;;;;;5.97;2.53;;;12.70;99.90;;;;;;5034889;28;20029;-73
2021/05/04 11:52:59;;;;;;;9.80;2.83;;;12.70;99.90;;;;;;5015685;28;20480;-73
2021/05/04 11:55:32;;;;;;;8.55;2.45;;;12.60;99.90;;;;;;5015009;28;20539;-72
2021/05/04 11:58:06;;;;;;;3.72;2.15;;;12.50;99.90;;;;;;5028553;28;20030;-72
2021/05/04 12:00:34;;;;;;;5.20;2.33;;;12.50;99.90;;;;;;5014962;28;20021;-72
2021/05/04 12:03:12;;;;;;;5.70;2.00;;;12.40;99.90;;;;;;5014901;28;20033;-72
2021/05/04 12:05:38;;;;;;;4.85;2.20;;;12.40;99.90;;;;;;5027351;28;20108;-72
2021/05/04 12:08:05;;;;;;;4.82;2.50;;;12.30;99.90;;;;;;5003704;28;20540;-74
2021/05/04 12:10:33;;;;;;;3.38;2.53;;;12.10;99.90;;;;;;5003765;28;20056;-72
2021/05/04 12:13:12;;;;;;;2.60;2.00;;;12.10;99.90;;;;;;4984079;28;20113;-72
2021/05/04 12:15:41;;;;;;;2.35;1.75;;;12.20;99.90;;;;;;5029523;28;20104;-72
2021/05/04 12:18:12;;;;;;;4.30;2.15;;;12.10;99.90;;;;;;5025979;28;20388;-72
2021/05/04 12:20:49;;;;;;;3.17;2.20;;;12.00;99.90;;;;;;4997834;28;20025;-73
2021/05/04 12:23:31;;;;;;;2.75;1.85;;;11.90;99.90;;;;;;5014573;28;20026;-72
2021/05/04 12:26:02;;;;;;;3.03;1.90;;;11.60;99.90;;;;;;5006050;28;20034;-74
2021/05/04 12:28:32;;;;;;;2.97;1.75;;;11.50;99.90;;;;;;4997095;28;20032;-73
2021/05/04 12:31:06;;;;;;;5.32;1.98;;;11.60;99.90;;;;;;5014623;28;20022;-73
2021/05/04 12:33:33;;;;;;;3.10;1.90;;;11.60;99.90;;;;;;5030039;28;20057;-73
2021/05/04 12:38:32;;;;;;;3.13;2.13;;;11.90;99.90;;;;;;5034130;28;20098;-74
2021/05/04 12:41:06;;;;;;;2.85;1.60;;;11.90;99.90;;;;;;5016239;28;20108;-73
2021/05/04 12:43:32;;;;;;;2.97;1.50;;;11.80;99.90;;;;;;5012805;28;20033;-72
2021/05/04 12:46:31;;;;;;;3.63;1.80;;;11.90;99.90;;;;;;5008427;28;20025;-74
2021/05/04 12:48:58;;;;;;;2.17;1.73;;;11.90;99.90;;;;;;5017351;28;20118;-73
2021/05/04 12:51:32;;;;;;;1.95;1.60;;;12.00;99.90;;;;;;5032117;28;20026;-73
2021/05/04 12:54:21;;;;;;;2.40;1.70;;;12.10;99.90;;;;;;5014091;28;20053;-73
2021/05/04 12:56:47;;;;;;;4.65;1.20;;;12.10;99.90;;;;;;4996496;28;20476;-73
2021/05/04 12:59:14;;;;;;;1.80;1.40;;;12.10;99.90;;;;;;5014047;28;20100;-73
2021/05/04 13:01:49;;;;;;;2.45;1.70;;;12.30;99.90;;;;;;5000792;28;20022;-73
2021/05/04 13:04:27;;;;;;;1.55;1.30;;;12.50;99.90;;;;;;5014924;28;20175;-72
2021/05/04 13:06:58;;;;;;;1.80;1.40;;;12.90;99.90;;;;;;5023993;28;20026;-72